San Clemente, CA (92672)

8:05 AM PST on February 14, 2016 (GMT -0800)
North Ola Vista | | Change Station
CLOSE
Current Station
Personal Weather Station
Location: San Clemente, CA
Elevation: 200 ft
Nearby Weather Stations
Active Advisory: High Surf Advisory

Elev 200 ft 33.43 °N, 117.62 °W | Updated 51 seconds ago

Partly Cloudy
Partly Cloudy
53.8 °F
Feels Like 53.8 °F
N
1.1
Wind Variable Wind from ESE
Gusts 2.5 mph

Today
High -- | Low -- °F
--% Chance of Precip.
Yesterday
High -- | Low -- °F
Precip. -- in
Pressure 30.32 in
Visibility 0.2 miles
Clouds
Dew Point 46 °F
Humidity 74%
Rainfall 0.00 in
Snow Depth Not available.
6:35 AM 5:33 PM
Waxing Crescent, 43% visible
METAR KNXF 141556Z AUTO 00000KT M1/4SM FG VV001 11/10 A3006 RMK AO2 SLP265 T01060100 $
Pressure 30.32 in
Visibility 0.2 miles
Clouds
Dew Point 46 °F
Humidity 74%
Rainfall 0.00 in
Snow Depth Not available.
6:35 AM 5:33 PM
Waxing Crescent, 43% visible
METAR KNXF 141556Z AUTO 00000KT M1/4SM FG VV001 11/10 A3006 RMK AO2 SLP265 T01060100 $

10-Day Weather Forecast

Almanac

Astronomy

Feb. 14, 2016 Rise Set
Actual Time
Civil Twilight
Nautical Twilight
Astronomical Twilight
Moon
Length of Visible Light
Length of Day
Tomorrow will be .
, % of the Moon is Illuminated

Today's Extremes

State Highs State Lows

Community

WunderPhotos

Upload Photos

1,892,819 photos uploaded!

WunderBlog® & News

Nearby

Air Quality

  Air Quality AQ Index Pollutant
Not available.

Snow Depth

Station Depth Elevation

Earthquake Activity

City Distance Mag. Time & Date
Minimum magnitude displayed is 2.5.

Coastal Water Temperatures

Place Temperature

Stations

Nearby Weather Stations

Station Location Temp. Windchill Dew Point Humidity Wind Precip. Elev Updated Type
                   

Watches & Warnings

High Surf Advisory
Issued: 5:12 AM PST Feb. 14, 2016 – National Weather Service

... High surf advisory remains in effect until 8 PM PST this
evening...

* swell... 8 ft at 16 seconds from the west-northwest around 290
degrees.

* Surf... 4 to 7 ft... with local sets to 8 ft north of Newport
Beach and south of del Mar. Surf slowly lowering during the day.

* Impacts... high surf and strong rip currents will create
dangerous swimming conditions. Minor beach erosion is also
possible. Larger waves may over-top jetties or sea walls at
times.

Precautionary/preparedness actions...

A high surf advisory means that high surf will affect beaches in
the advisory area... producing rip currents and localized beach
erosion.